Time;durP1;ratioP1;P1;durP2;ratioP2;P2;SDS_P1;SDS_P2;PMS_P1;PMS_P2;Temp;Humidity;BMP_temperature;BMP_pressure;BME280_temperature;BME280_humidity;BME280_pressure;Samples;Min_cycle;Max_cycle;Signal;HPM_P1;HPM_P2
2022/09/22 00:01:02;;;;;;;10.80;8.60;;;;;;;8.04;100.00;97126.32;108230;1267;25404;-80
2022/09/22 00:03:43;;;;;;;11.40;8.80;;;;;;;8.03;100.00;97124.92;108140;1268;22568;-80
2022/09/22 00:06:18;;;;;;;12.80;9.70;;;;;;;8.02;100.00;97124.17;108221;1267;22525;-80
2022/09/22 00:08:51;;;;;;;11.20;8.90;;;;;;;8.02;100.00;97125.63;108204;1267;30229;-80
2022/09/22 00:11:27;;;;;;;13.80;9.70;;;;;;;8.03;100.00;97129.04;108299;1268;22530;-80
2022/09/22 00:14:00;;;;;;;11.90;9.10;;;;;;;8.05;100.00;97133.13;108220;1267;22552;-80
2022/09/22 00:16:36;;;;;;;11.20;9.30;;;;;;;8.04;100.00;97130.91;108231;1267;24490;-80
2022/09/22 00:19:09;;;;;;;11.40;8.80;;;;;;;8.06;100.00;97139.84;108223;1267;35650;-80
2022/09/22 00:21:40;;;;;;;10.80;8.80;;;;;;;8.06;100.00;97140.36;108215;1268;22555;-80
2022/09/22 00:24:11;;;;;;;11.30;9.10;;;;;;;8.05;100.00;97139.21;108135;1270;22541;-80
2022/09/22 00:26:43;;;;;;;12.40;9.60;;;;;;;8.07;100.00;97144.70;108214;1268;22545;-80
2022/09/22 00:29:15;;;;;;;13.90;11.10;;;;;;;8.08;100.00;97137.69;108179;1267;28865;-79
2022/09/22 00:31:48;;;;;;;14.10;9.50;;;;;;;8.12;100.00;97139.94;108242;1268;22554;-80
2022/09/22 00:34:22;;;;;;;12.10;9.60;;;;;;;8.13;100.00;97138.47;108225;1268;22510;-80
2022/09/22 00:36:54;;;;;;;13.50;10.50;;;;;;;8.13;100.00;97141.06;108224;1267;22649;-80
2022/09/22 00:39:26;;;;;;;14.40;11.80;;;;;;;8.14;100.00;97142.45;108150;1268;24341;-80
2022/09/22 00:42:00;;;;;;;15.60;11.80;;;;;;;8.15;100.00;97137.23;108207;1268;22557;-80
2022/09/22 00:44:44;;;;;;;13.90;10.70;;;;;;;8.18;100.00;97140.39;108174;1267;22559;-80
2022/09/22 00:47:27;;;;;;;16.50;11.60;;;;;;;8.18;100.00;97135.63;108242;1268;22561;-81
2022/09/22 00:50:03;;;;;;;15.20;11.90;;;;;;;8.20;100.00;97138.77;108146;1267;26770;-80
2022/09/22 00:52:40;;;;;;;16.80;12.30;;;;;;;8.20;100.00;97139.08;108291;1268;22529;-80
2022/09/22 00:55:15;;;;;;;17.60;13.90;;;;;;;8.19;100.00;97137.38;108239;1267;22913;-80
2022/09/22 00:57:52;;;;;;;17.10;14.90;;;;;;;8.19;100.00;97141.55;108164;1268;22541;-80
2022/09/22 01:00:23;;;;;;;16.80;14.40;;;;;;;8.19;100.00;97146.89;108076;1268;35964;-80
2022/09/22 01:02:59;;;;;;;17.60;13.80;;;;;;;8.18;100.00;97141.87;108249;1267;22530;-80
2022/09/22 01:05:32;;;;;;;15.90;13.20;;;;;;;8.18;100.00;97144.72;108204;1268;22549;-80
2022/09/22 01:08:04;;;;;;;15.90;13.80;;;;;;;8.18;100.00;97145.73;108244;1265;22574;-80
2022/09/22 01:10:35;;;;;;;15.90;13.60;;;;;;;8.18;100.00;97145.98;108147;1267;30275;-80
2022/09/22 01:13:19;;;;;;;15.50;13.40;;;;;;;8.18;100.00;97142.55;108173;1269;22551;-80
2022/09/22 01:16:03;;;;;;;16.50;12.90;;;;;;;8.18;100.00;97141.23;108159;1268;23945;-80
2022/09/22 01:18:47;;;;;;;15.60;13.50;;;;;;;8.17;100.00;97142.27;108202;1267;29577;-79
2022/09/22 01:21:38;;;;;;;14.00;12.50;;;;;;;8.15;100.00;97148.73;108156;1268;22576;-80
2022/09/22 01:24:44;;;;;;;16.60;13.00;;;;;;;8.14;100.00;97140.75;108234;1267;22554;-80
2022/09/22 01:27:38;;;;;;;16.90;13.30;;;;;;;8.11;100.00;97145.05;108125;1268;22552;-80
2022/09/22 01:30:20;;;;;;;19.00;13.80;;;;;;;8.10;100.00;97150.64;108148;1267;32341;-80
2022/09/22 01:33:05;;;;;;;14.80;12.10;;;;;;;8.09;100.00;97149.11;108177;1268;22613;-80
2022/09/22 01:35:46;;;;;;;13.90;11.60;;;;;;;8.09;100.00;97144.98;108160;1268;23980;-80
2022/09/22 01:38:29;;;;;;;16.90;12.30;;;;;;;8.07;100.00;97149.03;108238;1267;25390;-80
2022/09/22 01:41:07;;;;;;;14.00;12.20;;;;;;;8.05;100.00;97147.29;108014;1268;192418;-80
2022/09/22 01:43:46;;;;;;;14.50;11.50;;;;;;;8.05;100.00;97142.54;108146;1268;22513;-80
2022/09/22 01:46:24;;;;;;;17.10;13.00;;;;;;;8.01;100.00;97139.68;108286;1267;24921;-80
2022/09/22 01:48:59;;;;;;;14.60;12.30;;;;;;;7.97;100.00;97139.57;108113;1268;32504;-80
2022/09/22 01:51:35;;;;;;;16.00;13.20;;;;;;;7.93;100.00;97138.70;108127;1268;22529;-80
2022/09/22 01:54:11;;;;;;;15.40;11.40;;;;;;;7.91;100.00;97138.52;108165;1268;22526;-80
2022/09/22 01:56:46;;;;;;;13.70;11.80;;;;;;;7.90;100.00;97136.09;108149;1268;22546;-80
2022/09/22 01:59:23;;;;;;;14.00;11.20;;;;;;;7.91;100.00;97130.50;108053;1268;32561;-79
2022/09/22 02:01:59;;;;;;;17.00;12.10;;;;;;;7.91;100.00;97128.59;108253;1267;24421;-80
2022/09/22 02:04:37;;;;;;;15.10;11.90;;;;;;;7.89;100.00;97125.10;108262;1268;22681;-80
2022/09/22 02:07:11;;;;;;;17.30;12.90;;;;;;;7.87;100.00;97128.64;108152;1268;24580;-80
2022/09/22 02:09:46;;;;;;;16.20;13.00;;;;;;;7.85;100.00;97127.52;108153;1267;31790;-80
2022/09/22 02:12:17;;;;;;;15.40;11.90;;;;;;;7.84;100.00;97130.30;108302;1268;22531;-80
2022/09/22 02:14:49;;;;;;;15.10;12.80;;;;;;;7.82;100.00;97126.22;108286;1267;22550;-80
2022/09/22 02:17:20;;;;;;;14.90;12.20;;;;;;;7.81;100.00;97126.73;108246;1267;22687;-79
2022/09/22 02:19:54;;;;;;;15.30;13.10;;;;;;;7.84;100.00;97128.86;108082;1268;28237;-80
2022/09/22 02:22:25;;;;;;;18.80;16.00;;;;;;;7.85;100.00;97125.13;108256;1268;22541;-80
2022/09/22 02:24:56;;;;;;;16.00;13.30;;;;;;;7.85;100.00;97126.09;108240;1268;25930;-79
2022/09/22 02:27:35;;;;;;;18.60;14.60;;;;;;;7.84;100.00;97118.80;108166;1270;22542;-79
2022/09/22 02:30:10;;;;;;;19.70;15.20;;;;;;;7.84;100.00;97118.63;108215;1267;29053;-79
2022/09/22 02:32:46;;;;;;;19.80;17.70;;;;;;;7.82;100.00;97120.26;108298;1267;22545;-80
2022/09/22 02:35:22;;;;;;;20.60;17.10;;;;;;;7.81;100.00;97122.77;108130;1270;22539;-80
2022/09/22 02:38:00;;;;;;;22.30;17.30;;;;;;;7.80;100.00;97123.55;108316;1267;22536;-80
2022/09/22 02:40:39;;;;;;;21.20;18.30;;;;;;;7.78;100.00;97118.11;108095;1270;29128;-79
2022/09/22 02:43:17;;;;;;;23.30;15.40;;;;;;;7.79;100.00;97113.26;108225;1267;22526;-80
2022/09/22 02:45:53;;;;;;;20.00;14.60;;;;;;;7.78;100.00;97115.47;108170;1268;22535;-80
2022/09/22 02:48:28;;;;;;;22.40;18.20;;;;;;;7.78;100.00;97115.67;108106;1268;30032;-79
2022/09/22 02:51:00;;;;;;;24.50;19.00;;;;;;;7.77;100.00;97116.09;108268;1267;23583;-80
2022/09/22 02:53:33;;;;;;;20.10;16.40;;;;;;;7.75;100.00;97108.63;108257;1267;23771;-80
2022/09/22 02:56:06;;;;;;;18.40;14.50;;;;;;;7.72;100.00;97114.65;108252;1267;22538;-80
2022/09/22 02:58:37;;;;;;;21.00;17.60;;;;;;;7.70;100.00;97115.84;108211;1267;26457;-79
2022/09/22 03:01:08;;;;;;;18.10;12.50;;;;;;;7.69;100.00;97113.19;108182;1269;22538;-80
2022/09/22 03:03:39;;;;;;;18.90;16.40;;;;;;;7.68;100.00;97110.06;108236;1267;22541;-79
2022/09/22 03:06:11;;;;;;;20.90;16.70;;;;;;;7.66;100.00;97109.58;108271;1267;23956;-80
2022/09/22 03:08:44;;;;;;;20.10;16.20;;;;;;;7.67;100.00;97115.49;108221;1267;32130;-79
2022/09/22 03:11:15;;;;;;;21.70;17.20;;;;;;;7.66;100.00;97114.17;108132;1268;24238;-80
2022/09/22 03:13:46;;;;;;;21.00;15.80;;;;;;;7.66;100.00;97120.72;108164;1268;22909;-80
2022/09/22 03:16:17;;;;;;;21.50;15.90;;;;;;;7.66;100.00;97121.55;108277;1267;24205;-80
2022/09/22 03:18:48;;;;;;;23.00;17.20;;;;;;;7.65;100.00;97118.02;108176;1268;29695;-79
2022/09/22 03:21:19;;;;;;;19.60;16.00;;;;;;;7.64;100.00;97119.11;108134;1268;22538;-80
2022/09/22 03:23:51;;;;;;;19.10;16.30;;;;;;;7.63;100.00;97115.46;108142;1270;23186;-79
2022/09/22 03:26:22;;;;;;;17.80;14.70;;;;;;;7.62;100.00;97121.16;108287;1267;24091;-79
2022/09/22 03:28:53;;;;;;;18.00;13.90;;;;;;;7.62;100.00;97117.35;108157;1268;26398;-79
2022/09/22 03:31:24;;;;;;;19.50;16.40;;;;;;;7.61;100.00;97125.30;108161;1270;22559;-79
2022/09/22 03:33:55;;;;;;;17.60;15.10;;;;;;;7.61;100.00;97124.25;108311;1267;22563;-79
2022/09/22 03:36:27;;;;;;;20.60;16.00;;;;;;;7.61;100.00;97126.95;108277;1268;23783;-80
2022/09/22 03:38:58;;;;;;;17.30;13.60;;;;;;;7.61;100.00;97132.08;108167;1267;35693;-79
2022/09/22 03:41:30;;;;;;;18.20;14.20;;;;;;;7.62;100.00;97134.66;108235;1268;22528;-79
2022/09/22 03:44:01;;;;;;;20.50;16.30;;;;;;;7.61;100.00;97133.44;108173;1268;23376;-79
2022/09/22 03:46:33;;;;;;;15.50;13.20;;;;;;;7.59;100.00;97131.83;108271;1267;25364;-79
2022/09/22 03:49:04;;;;;;;15.20;11.30;;;;;;;7.59;100.00;97128.79;108096;1270;30089;-79
2022/09/22 03:51:35;;;;;;;15.20;11.40;;;;;;;7.58;100.00;97131.58;108333;1267;22535;-80
2022/09/22 03:54:07;;;;;;;12.40;10.70;;;;;;;7.56;100.00;97129.52;108151;1268;25374;-80
2022/09/22 03:56:38;;;;;;;17.40;14.00;;;;;;;7.55;100.00;97129.19;108220;1267;22553;-80
2022/09/22 03:59:10;;;;;;;14.30;11.90;;;;;;;7.52;100.00;97126.19;108108;1269;33016;-79
2022/09/22 04:01:41;;;;;;;16.50;13.10;;;;;;;7.49;100.00;97121.46;108257;1268;22841;-79
2022/09/22 04:04:12;;;;;;;13.00;10.30;;;;;;;7.42;100.00;97119.67;108297;1268;22502;-79
2022/09/22 04:06:43;;;;;;;15.40;13.10;;;;;;;7.37;100.00;97123.16;108153;1271;22554;-80
2022/09/22 04:09:17;;;;;;;15.60;12.00;;;;;;;7.31;100.00;97125.92;108101;1270;29589;-79
2022/09/22 04:11:49;;;;;;;14.90;11.60;;;;;;;7.26;100.00;97123.11;108242;1267;24463;-79
2022/09/22 04:14:20;;;;;;;14.60;10.70;;;;;;;7.25;100.00;97130.81;108156;1269;22607;-79
2022/09/22 04:16:52;;;;;;;11.30;9.60;;;;;;;7.26;100.00;97126.86;108184;1268;24199;-79
2022/09/22 04:19:26;;;;;;;12.00;9.90;;;;;;;7.25;100.00;97128.02;108163;1267;31598;-80
2022/09/22 04:21:58;;;;;;;12.80;10.60;;;;;;;7.26;100.00;97129.17;108253;1268;22559;-80
2022/09/22 04:24:29;;;;;;;11.90;9.90;;;;;;;7.27;100.00;97129.88;108266;1268;22642;-80
2022/09/22 04:27:00;;;;;;;13.20;9.80;;;;;;;7.28;100.00;97127.67;108233;1268;22538;-79
2022/09/22 04:29:32;;;;;;;13.60;10.60;;;;;;;7.28;100.00;97127.52;108037;1270;28590;-79
2022/09/22 04:32:04;;;;;;;12.10;10.10;;;;;;;7.29;100.00;97130.80;108144;1268;22564;-79
2022/09/22 04:34:35;;;;;;;11.50;9.80;;;;;;;7.27;100.00;97134.21;108277;1267;26074;-80
2022/09/22 04:37:06;;;;;;;12.10;10.90;;;;;;;7.26;100.00;97133.67;108246;1268;22617;-80
2022/09/22 04:39:39;;;;;;;12.50;9.90;;;;;;;7.24;100.00;97136.29;108188;1268;25405;-79
2022/09/22 04:42:11;;;;;;;13.00;9.80;;;;;;;7.24;100.00;97137.28;108280;1268;24072;-80
2022/09/22 04:44:42;;;;;;;12.40;10.90;;;;;;;7.26;100.00;97137.98;108274;1268;22555;-79
2022/09/22 04:47:13;;;;;;;13.80;11.10;;;;;;;7.27;100.00;97142.33;108251;1268;22740;-80
2022/09/22 04:49:45;;;;;;;14.20;9.80;;;;;;;7.27;100.00;97143.33;108201;1268;25768;-79
2022/09/22 04:52:16;;;;;;;13.10;10.90;;;;;;;7.28;100.00;97140.48;108218;1268;22561;-79
2022/09/22 04:54:48;;;;;;;15.80;11.20;;;;;;;7.28;100.00;97141.23;108267;1267;22601;-79
2022/09/22 04:57:19;;;;;;;15.20;11.50;;;;;;;7.28;100.00;97133.74;108248;1268;22564;-80
2022/09/22 04:59:50;;;;;;;16.00;13.30;;;;;;;7.28;100.00;97137.86;108190;1268;29085;-80
2022/09/22 05:02:22;;;;;;;16.00;12.60;;;;;;;7.28;100.00;97133.42;108173;1268;23292;-79
2022/09/22 05:04:53;;;;;;;14.70;11.50;;;;;;;7.28;100.00;97136.13;108175;1268;24231;-80
2022/09/22 05:07:24;;;;;;;16.80;14.00;;;;;;;7.29;100.00;97136.96;108222;1267;25125;-79
2022/09/22 05:09:55;;;;;;;17.10;13.90;;;;;;;7.28;100.00;97135.05;108143;1268;32039;-80
2022/09/22 05:12:30;;;;;;;15.70;13.20;;;;;;;7.25;100.00;97136.55;108146;1269;23986;-80
2022/09/22 05:15:01;;;;;;;16.40;14.00;;;;;;;7.23;100.00;97138.60;108197;1270;22626;-79
2022/09/22 05:17:34;;;;;;;15.80;12.20;;;;;;;7.27;100.00;97138.73;108238;1268;23380;-79
2022/09/22 05:20:07;;;;;;;17.70;13.60;;;;;;;7.28;100.00;97138.01;108192;1267;27722;-80
2022/09/22 05:22:40;;;;;;;16.40;12.50;;;;;;;7.27;100.00;97139.58;108248;1267;22785;-80
2022/09/22 05:25:15;;;;;;;15.90;12.80;;;;;;;7.27;100.00;97137.42;108161;1270;22551;-79
2022/09/22 05:27:48;;;;;;;15.50;13.60;;;;;;;7.33;100.00;97133.92;108219;1268;22873;-79
2022/09/22 05:30:22;;;;;;;15.90;12.80;;;;;;;7.38;100.00;97141.47;108071;1268;24525;-80
2022/09/22 05:32:56;;;;;;;17.40;14.20;;;;;;;7.54;100.00;97139.41;108224;1267;22542;-80
2022/09/22 05:35:28;;;;;;;14.90;11.90;;;;;;;7.91;100.00;97136.73;108114;1269;24253;-80
2022/09/22 05:37:59;;;;;;;12.30;11.00;;;;;;;8.56;100.00;97132.82;108256;1267;22519;-80
2022/09/22 05:40:30;;;;;;;13.90;10.20;;;;;;;8.66;99.93;97129.94;108169;1267;26578;-79
2022/09/22 05:43:02;;;;;;;11.20;8.50;;;;;;;8.63;98.36;97130.92;108153;1268;25238;-80
2022/09/22 05:45:33;;;;;;;13.60;9.60;;;;;;;8.29;97.34;97134.41;108259;1267;24228;-79
2022/09/22 05:48:04;;;;;;;10.90;8.70;;;;;;;8.07;97.57;97135.67;108231;1268;22641;-79
2022/09/22 05:50:36;;;;;;;14.40;9.30;;;;;;;7.96;97.95;97135.13;108163;1267;30935;-80
2022/09/22 05:53:09;;;;;;;11.90;8.80;;;;;;;7.88;97.96;97139.75;108216;1267;22554;-80
2022/09/22 05:55:41;;;;;;;11.20;8.20;;;;;;;7.82;98.00;97140.48;108266;1267;22518;-80
2022/09/22 05:58:13;;;;;;;9.60;7.70;;;;;;;7.79;98.00;97144.55;108213;1267;24215;-79
2022/09/22 06:00:44;;;;;;;9.10;6.90;;;;;;;7.79;98.22;97149.68;108207;1267;24307;-80
2022/09/22 06:03:16;;;;;;;9.20;7.80;;;;;;;7.83;98.41;97154.05;108250;1267;22911;-79
2022/09/22 06:05:47;;;;;;;8.60;6.80;;;;;;;7.88;98.41;97157.17;108253;1268;25363;-80
2022/09/22 06:08:18;;;;;;;8.40;6.70;;;;;;;7.90;98.39;97158.20;108212;1267;25859;-79
2022/09/22 06:10:50;;;;;;;9.50;7.10;;;;;;;7.91;98.26;97162.98;108263;1267;25009;-79
2022/09/22 06:13:21;;;;;;;7.70;6.00;;;;;;;7.97;98.31;97165.55;108235;1268;22628;-79
2022/09/22 06:15:52;;;;;;;8.50;6.40;;;;;;;8.02;98.18;97167.64;108236;1267;22743;-79
2022/09/22 06:18:25;;;;;;;9.40;6.30;;;;;;;8.11;98.06;97168.07;108147;1268;32052;-79
2022/09/22 06:20:56;;;;;;;12.50;7.70;;;;;;;8.20;97.88;97169.08;108271;1267;22705;-80
2022/09/22 06:23:28;;;;;;;10.70;7.30;;;;;;;8.24;97.45;97171.49;108237;1267;23955;-80
2022/09/22 06:26:02;;;;;;;12.10;7.90;;;;;;;8.25;96.97;97166.16;108272;1267;23672;-80
2022/09/22 06:28:34;;;;;;;9.30;6.50;;;;;;;8.27;96.88;97166.50;108166;1267;33948;-79
2022/09/22 06:31:05;;;;;;;10.40;7.20;;;;;;;8.39;96.75;97164.58;108231;1267;22558;-79
2022/09/22 06:33:37;;;;;;;12.10;7.70;;;;;;;8.55;96.54;97168.11;108162;1268;22567;-80
2022/09/22 06:36:09;;;;;;;10.40;7.60;;;;;;;8.63;95.85;97167.56;108237;1267;22612;-80
2022/09/22 06:38:40;;;;;;;12.90;9.30;;;;;;;8.71;95.73;97167.08;108075;1268;25225;-79
2022/09/22 06:41:12;;;;;;;9.40;6.90;;;;;;;8.75;95.94;97168.97;108136;1270;23955;-80
2022/09/22 06:43:46;;;;;;;9.00;6.90;;;;;;;9.43;97.37;97166.54;108150;1270;25423;-80
2022/09/22 06:46:19;;;;;;;10.10;6.60;;;;;;;10.90;95.06;97171.84;108134;1268;22544;-80
2022/09/22 06:48:56;;;;;;;10.20;8.40;;;;;;;10.48;89.63;97172.17;108072;1268;28502;-79
2022/09/22 06:51:31;;;;;;;9.10;6.90;;;;;;;9.83;89.84;97175.27;108122;1270;25186;-80
2022/09/22 06:54:04;;;;;;;11.40;7.40;;;;;;;9.64;90.26;97176.05;108097;1270;24290;-80
2022/09/22 06:56:42;;;;;;;10.60;6.80;;;;;;;9.42;90.16;97178.42;108104;1270;22656;-80
2022/09/22 06:59:15;;;;;;;9.30;6.10;;;;;;;9.50;91.94;97178.00;108056;1270;31077;-80
2022/09/22 07:01:46;;;;;;;10.00;7.40;;;;;;;10.09;92.78;97183.58;108115;1270;22525;-80
2022/09/22 07:04:18;;;;;;;12.20;8.00;;;;;;;10.02;90.92;97189.97;108048;1270;23722;-80
2022/09/22 07:06:50;;;;;;;10.50;6.80;;;;;;;9.71;90.23;97193.23;108137;1270;22535;-80
2022/09/22 07:09:21;;;;;;;11.60;6.90;;;;;;;9.58;90.53;97192.55;107970;1270;39687;-79
2022/09/22 07:11:53;;;;;;;11.50;7.40;;;;;;;9.55;90.36;97195.00;108166;1268;23292;-80
2022/09/22 07:14:24;;;;;;;11.60;8.40;;;;;;;9.63;90.78;97195.74;108115;1270;22539;-80
2022/09/22 07:16:55;;;;;;;12.20;7.40;;;;;;;10.94;92.93;97192.91;108180;1270;22548;-80
2022/09/22 07:19:27;;;;;;;12.50;9.10;;;;;;;11.56;88.30;97191.38;108045;1270;27893;-80
2022/09/22 07:21:58;;;;;;;10.90;8.20;;;;;;;10.90;84.96;97192.78;108096;1271;22558;-80
2022/09/22 07:24:29;;;;;;;12.30;8.40;;;;;;;10.51;86.40;97193.09;108134;1270;22618;-80
2022/09/22 07:27:03;;;;;;;12.10;8.10;;;;;;;10.20;86.21;97192.63;108193;1268;24265;-80
2022/09/22 07:29:34;;;;;;;11.90;7.50;;;;;;;9.93;86.78;97197.45;108070;1268;26067;-80
2022/09/22 07:32:09;;;;;;;13.30;7.40;;;;;;;9.66;86.69;97194.59;108259;1268;23936;-80
2022/09/22 07:34:40;;;;;;;12.40;8.90;;;;;;;9.91;88.30;97191.46;108251;1268;22640;-81
2022/09/22 07:37:14;;;;;;;15.70;10.30;;;;;;;10.90;87.94;97192.42;108238;1268;22557;-80
2022/09/22 07:39:45;;;;;;;12.80;8.30;;;;;;;11.11;86.70;97193.00;108100;1271;27372;-80
2022/09/22 07:42:19;;;;;;;12.40;9.10;;;;;;;11.14;85.38;97188.17;108229;1268;22535;-80
2022/09/22 07:50:28;;;;;;;13.00;8.80;;;;;;;11.23;83.96;97186.03;108169;1268;28676;-81
2022/09/22 07:53:02;;;;;;;11.60;8.40;;;;;;;11.09;83.25;97188.27;108201;1268;22568;-81
2022/09/22 07:55:36;;;;;;;10.40;7.40;;;;;;;10.73;83.35;97193.23;108244;1268;22647;-80
2022/09/22 07:58:08;;;;;;;9.30;6.80;;;;;;;10.49;83.54;97188.84;108245;1268;22708;-80
2022/09/22 08:00:39;;;;;;;10.90;7.50;;;;;;;10.48;84.27;97189.21;108105;1271;27594;-80
2022/09/22 08:03:11;;;;;;;11.10;8.30;;;;;;;10.79;84.76;97190.89;108213;1268;22661;-80
2022/09/22 08:05:42;;;;;;;9.70;6.90;;;;;;;12.20;85.39;97182.19;108225;1268;22552;-80
2022/09/22 08:08:15;;;;;;;9.40;6.70;;;;;;;12.78;81.92;97182.34;108226;1268;22535;-80
2022/09/22 08:10:47;;;;;;;9.10;6.80;;;;;;;12.56;80.67;97182.33;108269;1268;23613;-80
2022/09/22 08:13:19;;;;;;;10.90;7.80;;;;;;;12.45;80.69;97188.16;108163;1268;22568;-80
2022/09/22 08:15:55;;;;;;;10.90;6.70;;;;;;;12.35;79.55;97190.45;108217;1268;22600;-80
2022/09/22 08:18:27;;;;;;;11.30;7.00;;;;;;;11.40;78.60;97195.86;108047;1268;41169;-80
2022/09/22 08:21:03;;;;;;;8.80;6.10;;;;;;;10.99;79.89;97205.38;108117;1270;22553;-81
2022/09/22 08:23:36;;;;;;;8.90;6.00;;;;;;;10.87;79.67;97206.58;108142;1268;22559;-80
2022/09/22 08:26:09;;;;;;;10.00;6.70;;;;;;;10.61;79.63;97206.14;108137;1270;22542;-80
2022/09/22 08:28:44;;;;;;;9.00;6.70;;;;;;;10.50;80.66;97201.61;108076;1271;34635;-80
2022/09/22 08:31:18;;;;;;;10.50;6.40;;;;;;;10.50;81.10;97207.08;108059;1268;25657;-80
2022/09/22 08:33:51;;;;;;;7.40;5.40;;;;;;;10.24;80.81;97202.77;108141;1271;22568;-80
2022/09/22 08:36:24;;;;;;;9.20;6.10;;;;;;;10.16;81.82;97207.88;108075;1270;24238;-80
2022/09/22 08:38:58;;;;;;;9.70;6.60;;;;;;;10.26;82.65;97208.40;108081;1270;29945;-80
2022/09/22 08:41:42;;;;;;;9.30;5.90;;;;;;;10.48;82.87;97213.65;108168;1271;22526;-80
2022/09/22 08:44:21;;;;;;;5.80;4.10;;;;;;;10.55;81.22;97217.00;108141;1270;22619;-80
2022/09/22 08:46:59;;;;;;;7.40;4.20;;;;;;;10.13;80.44;97220.73;108062;1270;24214;-81
2022/09/22 08:52:33;;;;;;;7.80;5.30;;;;;;;9.69;81.21;97212.66;108115;1271;22663;-81
2022/09/22 08:55:07;;;;;;;11.00;5.60;;;;;;;9.51;81.93;97212.61;108142;1271;22544;-80
2022/09/22 08:57:58;;;;;;;7.00;4.90;;;;;;;9.56;83.05;97216.92;108149;1271;24253;-81
2022/09/22 09:00:35;;;;;;;9.20;6.20;;;;;;;9.72;83.26;97209.98;108087;1271;28593;-80
2022/09/22 09:03:23;;;;;;;8.90;5.90;;;;;;;9.66;82.76;97216.61;108110;1271;22548;-80
2022/09/22 09:06:11;;;;;;;7.80;5.30;;;;;;;9.52;82.93;97218.23;108108;1270;24196;-80
2022/09/22 09:09:05;;;;;;;6.00;4.40;;;;;;;9.51;83.49;97215.20;108066;1271;26700;-80
2022/09/22 09:11:48;;;;;;;8.20;4.90;;;;;;;9.44;83.61;97216.77;108160;1268;22581;-80
2022/09/22 09:14:40;;;;;;;8.10;5.50;;;;;;;9.32;83.59;97215.62;108176;1268;22599;-80
2022/09/22 09:17:18;;;;;;;6.90;4.70;;;;;;;9.30;84.29;97213.01;108104;1271;24243;-81
2022/09/22 09:19:52;;;;;;;6.90;4.50;;;;;;;9.41;84.74;97212.02;108020;1270;38803;-80
2022/09/22 09:22:30;;;;;;;6.40;4.60;;;;;;;9.35;84.41;97210.98;108117;1271;22532;-81
2022/09/22 09:25:08;;;;;;;6.10;4.30;;;;;;;9.35;84.65;97212.25;108194;1270;22714;-81
2022/09/22 09:27:43;;;;;;;6.40;4.40;;;;;;;9.47;85.12;97209.26;108141;1271;22562;-80
2022/09/22 09:30:18;;;;;;;7.00;4.70;;;;;;;9.63;85.05;97210.56;108101;1268;26619;-80
2022/09/22 09:32:53;;;;;;;6.00;4.20;;;;;;;9.63;84.62;97211.19;108129;1271;22549;-81
2022/09/22 09:35:31;;;;;;;7.50;4.20;;;;;;;9.68;84.45;97208.14;108157;1268;22551;-81
2022/09/22 09:38:08;;;;;;;7.00;4.50;;;;;;;9.65;84.01;97208.39;108123;1271;22566;-80
2022/09/22 09:40:40;;;;;;;7.60;5.10;;;;;;;9.97;85.45;97200.65;107971;1271;24245;-80
2022/09/22 09:43:12;;;;;;;6.40;5.10;;;;;;;10.43;85.14;97202.88;108075;1271;22533;-80
2022/09/22 09:45:55;;;;;;;6.80;4.70;;;;;;;10.93;86.16;97200.90;108144;1271;25937;-80
2022/09/22 09:48:36;;;;;;;5.70;4.50;;;;;;;11.54;85.03;97196.80;107957;1271;27173;-79
2022/09/22 09:51:10;;;;;;;4.60;3.60;;;;;;;11.78;82.33;97199.24;108084;1271;22525;-80
2022/09/22 09:53:49;;;;;;;5.50;3.30;;;;;;;11.91;81.58;97202.02;108072;1271;22549;-79
2022/09/22 09:56:26;;;;;;;4.00;3.30;;;;;;;11.79;79.23;97199.55;108054;1271;22561;-79
2022/09/22 10:01:53;;;;;;;2.80;2.30;;;;;;;11.57;78.90;97203.76;108002;1271;22628;-79
2022/09/22 10:04:32;;;;;;;3.00;2.60;;;;;;;11.74;79.70;97203.61;108021;1271;22544;-79
2022/09/22 10:07:15;;;;;;;3.10;2.60;;;;;;;12.16;79.97;97196.92;108095;1271;24555;-79
2022/09/22 10:09:50;;;;;;;4.00;3.20;;;;;;;12.20;76.93;97195.63;107964;1271;27836;-79
2022/09/22 10:12:28;;;;;;;4.30;3.20;;;;;;;12.02;75.89;97192.38;108115;1270;22559;-79
2022/09/22 10:15:01;;;;;;;5.10;3.10;;;;;;;11.86;75.51;97193.29;108101;1270;22571;-79
2022/09/22 10:17:41;;;;;;;4.00;3.00;;;;;;;11.77;74.45;97192.29;108068;1271;23758;-80
2022/09/22 10:20:25;;;;;;;4.90;3.30;;;;;;;11.71;74.62;97200.21;108050;1268;26292;-79
2022/09/22 10:22:56;;;;;;;4.90;3.60;;;;;;;11.54;74.77;97200.04;108096;1268;22536;-79
2022/09/22 10:25:30;;;;;;;4.50;3.40;;;;;;;11.59;75.26;97200.78;108112;1268;22641;-79
2022/09/22 10:28:08;;;;;;;4.50;3.00;;;;;;;11.68;74.57;97197.18;108200;1268;22564;-79
2022/09/22 10:30:40;;;;;;;5.50;3.40;;;;;;;11.94;75.35;97191.98;108152;1268;31041;-79
2022/09/22 10:33:20;;;;;;;4.60;3.10;;;;;;;12.26;75.27;97184.22;108127;1268;24158;-79
2022/09/22 10:36:03;;;;;;;6.50;3.60;;;;;;;12.45;75.37;97180.97;108198;1268;23847;-79
2022/09/22 10:38:38;;;;;;;4.90;3.50;;;;;;;12.66;74.33;97178.80;108129;1268;35834;-79
2022/09/22 10:41:13;;;;;;;5.10;3.00;;;;;;;12.60;72.80;97172.95;108209;1268;22692;-80
2022/09/22 10:43:50;;;;;;;4.50;3.40;;;;;;;12.37;70.80;97172.88;108110;1268;22697;-80
2022/09/22 10:46:49;;;;;;;2.60;2.10;;;;;;;12.36;70.29;97172.14;108212;1268;22533;-80
2022/09/22 10:49:36;;;;;;;3.40;2.90;;;;;;;12.46;70.61;97161.98;108134;1267;34048;-79
2022/09/22 10:52:17;;;;;;;2.60;2.40;;;;;;;12.47;70.03;97154.05;108185;1267;25946;-80
2022/09/22 10:54:54;;;;;;;;;;;;;;;12.50;69.58;97152.52;108278;1268;23316;-80
2022/09/22 10:57:41;;;;;;;3.60;2.80;;;;;;;12.53;69.42;97162.04;108126;1268;22810;-81
2022/09/22 11:00:17;;;;;;;3.20;2.00;;;;;;;12.80;70.20;97163.91;108027;1268;30725;-80
2022/09/22 11:03:17;;;;;;;2.80;2.00;;;;;;;12.99;68.17;97159.82;108112;1271;22570;-80
2022/09/22 11:12:18;;;;;;;3.70;2.30;;;;;;;13.44;66.93;97154.77;107845;1274;22582;-80
2022/09/22 11:15:02;;;;;;;2.60;2.10;;;;;;;13.39;65.11;97146.79;107906;1273;22566;-81
2022/09/22 11:17:54;;;;;;;2.90;1.80;;;;;;;13.30;66.02;97152.68;107995;1268;22597;-80
2022/09/22 11:20:38;;;;;;;3.80;2.50;;;;;;;13.16;65.05;97156.26;108094;1268;27000;-80
2022/09/22 11:23:40;;;;;;;3.60;2.40;;;;;;;12.98;64.86;97156.30;108045;1271;24392;-80
2022/09/22 11:26:31;;;;;;;4.10;2.00;;;;;;;12.83;66.07;97159.64;108069;1271;22564;-81
2022/09/22 11:29:31;;;;;;;2.80;1.80;;;;;;;12.54;67.16;97158.67;108010;1270;30365;-81
2022/09/22 11:32:15;;;;;;;2.80;1.50;;;;;;;12.28;68.70;97162.23;108151;1268;22597;-81
2022/09/22 11:35:16;;;;;;;1.60;1.40;;;;;;;12.02;69.98;97168.45;108063;1270;22792;-81
2022/09/22 11:38:02;;;;;;;1.30;1.10;;;;;;;11.82;71.04;97171.61;108063;1270;22546;-81
2022/09/22 11:40:59;;;;;;;1.20;0.80;;;;;;;11.74;72.19;97167.95;107988;1270;29961;-81
2022/09/22 11:43:48;;;;;;;2.00;1.20;;;;;;;11.64;73.23;97169.52;108157;1268;22558;-81
2022/09/22 11:46:29;;;;;;;1.20;1.10;;;;;;;11.61;74.22;97169.06;108129;1268;22548;-81
2022/09/22 11:49:19;;;;;;;2.20;1.60;;;;;;;11.51;74.85;97171.21;108070;1268;24973;-81
2022/09/22 11:52:07;;;;;;;1.50;1.30;;;;;;;11.45;75.79;97172.61;108048;1270;22574;-81
2022/09/22 11:55:06;;;;;;;1.50;1.40;;;;;;;11.49;76.49;97171.85;108135;1268;24233;-81
2022/09/22 11:57:41;;;;;;;0.80;0.80;;;;;;;11.44;76.00;97178.77;108079;1270;22530;-81
2022/09/22 12:00:17;;;;;;;1.80;1.10;;;;;;;11.15;74.88;97175.16;108092;1268;25865;-82
2022/09/22 12:02:55;;;;;;;1.50;1.20;;;;;;;10.77;75.33;97176.66;108102;1268;22554;-81
2022/09/22 12:05:31;;;;;;;1.20;1.00;;;;;;;10.49;75.55;97177.49;108159;1268;22625;-82
2022/09/22 12:08:07;;;;;;;1.40;1.20;;;;;;;10.11;75.38;97174.16;108141;1268;23941;-81
2022/09/22 12:10:43;;;;;;;2.40;1.30;;;;;;;9.81;76.47;97174.64;108074;1268;26126;-81
2022/09/22 12:13:17;;;;;;;1.30;1.00;;;;;;;9.60;77.49;97166.60;108120;1268;22552;-81
2022/09/22 12:15:59;;;;;;;1.40;1.20;;;;;;;9.45;78.67;97163.72;108144;1268;23252;-81